Zhongning, China
Current Conditions -  °F | °C
As of 11:00 PM on Wednesday 22 Oct 2014 (Local Time) from ZLLL Reporting Station
Clear Clear  
Wind Chill: 34°   Ceiling: Unl
Heat Index: 39°   Visibility: 5mi
Dew Point: 34°   Wind: 7mph
Humidity: 81%   Direction: 330°NNW
Pressure: 30.3"   Gusts: NA
Location:  37.48°N, 105.67°E
Report Text: ZLLL 221500Z 33003MPS 8000 NSC 04/01 Q1026 NOSIG
Loading
Personal Weather Stations






























Interactive Weather Map
Tropical Storm Tracking
New forecast layout! Learn more

10-Day Weather Forecast

Advertisements
Track Severe Weather on mobile